Bullhead City Mohave Valley, Arizona
Current Conditions -  °F | °C
As of 10:56 PM on Tuesday 25 Nov 2014 (Local Time) from KEED Reporting Station
Clear Clear  
Wind Chill: 53°   Ceiling: Unl
Heat Index: 53°   Visibility: 10mi
Dew Point:   Wind: 7mph
Humidity: 17%   Direction: 250°WSW
Pressure: 30.33"   Gusts: NA
Location:  34.91°N, 114.546°W
Report Text: KEED 260556Z AUTO 25006KT 10SM CLR 12/M13 A3033 RMK AO2 SLP259 T01171128 10200 20117 51004
Loading
Personal Weather Stations






























Interactive Weather Map New forecast layout! Learn more

10-Day Weather Forecast

Advertisements
Track Severe Weather on mobile